Time;durP1;ratioP1;P1;durP2;ratioP2;P2;SDS_P1;SDS_P2;PMS_P1;PMS_P2;Temp;Humidity;BMP_temperature;BMP_pressure;BME280_temperature;BME280_humidity;BME280_pressure;Samples;Min_cycle;Max_cycle;Signal;HPM_P1;HPM_P2
2023/08/19 00:01:23;;;;;;;24.27;22.70;;;;;;;;;;5096120;28;20461;-81
2023/08/19 00:03:51;;;;;;;22.97;21.53;;;;;;;;;;5096906;28;20461;-81
2023/08/19 00:06:36;;;;;;;22.63;21.33;;;;;;;;;;5096635;28;20815;-82
2023/08/19 00:09:04;;;;;;;23.67;22.17;;;;;;;;;;5097100;28;20455;-83
2023/08/19 00:11:31;;;;;;;23.37;22.13;;;;;;;;;;5096009;28;21133;-82
2023/08/19 00:13:58;;;;;;;21.80;20.57;;;;;;;;;;5096778;28;20484;-81
2023/08/19 00:16:25;;;;;;;23.97;22.57;;;;;;;;;;5096655;28;20528;-81
2023/08/19 00:18:54;;;;;;;23.40;22.00;;;;;;;;;;5096926;28;20445;-81
2023/08/19 00:21:21;;;;;;;23.27;21.73;;;;;;;;;;5096431;28;20508;-81
2023/08/19 00:23:49;;;;;;;24.37;22.63;;;;;;;;;;5096645;28;20460;-82
2023/08/19 00:26:16;;;;;;;24.37;22.87;;;;;;;;;;5096983;28;20449;-82
2023/08/19 00:28:43;;;;;;;23.50;22.20;;;;;;;;;;5096774;28;20453;-82
2023/08/19 00:31:10;;;;;;;23.97;22.50;;;;;;;;;;5095820;28;20445;-81
2023/08/19 00:33:38;;;;;;;24.00;22.47;;;;;;;;;;5097205;28;20480;-81
2023/08/19 00:36:07;;;;;;;24.07;22.10;;;;;;;;;;5100945;28;20436;-83
2023/08/19 00:38:34;;;;;;;22.93;21.60;;;;;;;;;;5100088;27;20983;-82
2023/08/19 00:41:03;;;;;;;23.80;22.50;;;;;;;;;;5100385;28;20456;-81
2023/08/19 00:43:31;;;;;;;23.37;21.90;;;;;;;;;;5100298;28;20480;-81
2023/08/19 00:45:58;;;;;;;25.03;23.43;;;;;;;;;;5100413;28;20448;-83
2023/08/19 00:48:25;;;;;;;24.17;22.37;;;;;;;;;;5099759;27;20471;-82
2023/08/19 00:50:53;;;;;;;25.50;24.00;;;;;;;;;;5099615;28;20449;-83
2023/08/19 00:53:21;;;;;;;26.03;24.27;;;;;;;;;;5099986;28;20488;-81
2023/08/19 00:55:48;;;;;;;24.53;23.13;;;;;;;;;;5099985;28;20440;-82
2023/08/19 00:58:15;;;;;;;26.50;24.60;;;;;;;;;;5100702;28;20441;-81
2023/08/19 01:00:42;;;;;;;25.53;23.80;;;;;;;;;;5099509;28;20461;-81
2023/08/19 01:03:10;;;;;;;24.97;23.33;;;;;;;;;;5102308;28;20471;-82
2023/08/19 01:05:51;;;;;;;26.60;24.70;;;;;;;;;;5101216;28;20451;-81
2023/08/19 01:08:21;;;;;;;25.23;23.30;;;;;;;;;;5100321;28;20428;-82
2023/08/19 01:10:52;;;;;;;24.60;23.20;;;;;;;;;;5099781;28;20457;-81
2023/08/19 01:13:21;;;;;;;26.10;24.30;;;;;;;;;;5100245;28;20500;-81
2023/08/19 01:15:51;;;;;;;25.90;24.30;;;;;;;;;;5101693;28;20456;-83
2023/08/19 01:18:19;;;;;;;25.90;24.30;;;;;;;;;;5100280;28;20458;-82
2023/08/19 01:20:47;;;;;;;27.20;25.30;;;;;;;;;;5099930;28;20539;-82
2023/08/19 01:23:15;;;;;;;26.63;25.00;;;;;;;;;;5098870;28;20559;-83
2023/08/19 01:25:44;;;;;;;25.03;23.40;;;;;;;;;;5099717;28;20444;-82
2023/08/19 01:28:11;;;;;;;26.23;24.63;;;;;;;;;;5100020;28;20451;-83
2023/08/19 01:30:38;;;;;;;26.37;24.67;;;;;;;;;;5098896;28;20481;-81
2023/08/19 01:33:06;;;;;;;25.47;23.87;;;;;;;;;;5099317;28;20996;-82
2023/08/19 01:35:38;;;;;;;27.00;25.10;;;;;;;;;;5099382;28;20491;-83
2023/08/19 01:38:09;;;;;;;26.50;24.60;;;;;;;;;;5098651;28;20452;-82
2023/08/19 01:40:37;;;;;;;25.77;23.97;;;;;;;;;;5098642;28;20468;-82
2023/08/19 01:43:06;;;;;;;26.73;25.13;;;;;;;;;;5099026;28;20461;-81
2023/08/19 01:45:33;;;;;;;26.40;24.70;;;;;;;;;;5098813;28;20456;-82
2023/08/19 01:48:00;;;;;;;25.13;23.50;;;;;;;;;;5099362;28;20450;-81
2023/08/19 01:50:27;;;;;;;25.77;24.27;;;;;;;;;;5098437;28;20843;-83
2023/08/19 01:52:54;;;;;;;26.40;24.67;;;;;;;;;;5098301;28;20483;-81
2023/08/19 01:55:22;;;;;;;26.63;25.03;;;;;;;;;;5098689;28;20452;-81
2023/08/19 01:57:49;;;;;;;26.67;24.87;;;;;;;;;;5099063;28;20502;-81
2023/08/19 02:00:17;;;;;;;25.73;24.23;;;;;;;;;;5097985;28;20457;-82
2023/08/19 02:02:44;;;;;;;26.77;25.10;;;;;;;;;;5099104;28;20483;-81
2023/08/19 02:05:14;;;;;;;26.50;25.00;;;;;;;;;;5099245;28;20965;-81
2023/08/19 02:07:42;;;;;;;26.97;25.07;;;;;;;;;;5099698;28;20445;-82
2023/08/19 02:10:10;;;;;;;26.77;25.07;;;;;;;;;;5098428;28;20431;-83
2023/08/19 02:12:37;;;;;;;25.30;23.80;;;;;;;;;;5099787;28;20461;-82
2023/08/19 02:15:05;;;;;;;26.43;24.90;;;;;;;;;;5098574;28;21127;-81
2023/08/19 02:17:34;;;;;;;25.73;24.23;;;;;;;;;;5099562;28;20449;-81
2023/08/19 02:20:01;;;;;;;26.40;24.60;;;;;;;;;;5097608;28;20443;-81
2023/08/19 02:22:29;;;;;;;29.33;27.30;;;;;;;;;;5098718;28;20475;-81
2023/08/19 02:24:56;;;;;;;26.10;24.60;;;;;;;;;;5098859;28;20519;-81
2023/08/19 02:27:23;;;;;;;27.40;25.70;;;;;;;;;;5098536;28;20444;-81
2023/08/19 02:29:50;;;;;;;27.50;25.60;;;;;;;;;;5098059;28;20805;-81
2023/08/19 02:32:17;;;;;;;27.17;25.47;;;;;;;;;;5098806;28;20469;-82
2023/08/19 02:34:46;;;;;;;26.60;24.83;;;;;;;;;;5098675;28;20484;-81
2023/08/19 02:37:14;;;;;;;26.67;24.67;;;;;;;;;;5098025;28;20441;-83
2023/08/19 02:39:41;;;;;;;27.03;25.37;;;;;;;;;;5098668;28;20506;-81
2023/08/19 02:42:08;;;;;;;26.20;24.50;;;;;;;;;;5098002;28;20465;-83
2023/08/19 02:44:35;;;;;;;25.23;23.63;;;;;;;;;;5098503;28;20443;-82
2023/08/19 02:47:03;;;;;;;27.50;25.47;;;;;;;;;;5098301;28;20480;-81
2023/08/19 02:49:30;;;;;;;26.37;24.77;;;;;;;;;;5097884;28;20449;-83
2023/08/19 02:51:58;;;;;;;26.87;25.03;;;;;;;;;;5097577;28;20968;-81
2023/08/19 02:54:25;;;;;;;25.60;23.97;;;;;;;;;;5097699;27;20485;-81
2023/08/19 02:56:52;;;;;;;25.97;24.27;;;;;;;;;;5097982;28;20445;-82
2023/08/19 02:59:19;;;;;;;25.17;23.37;;;;;;;;;;5097851;28;20452;-82
2023/08/19 03:01:46;;;;;;;25.17;23.67;;;;;;;;;;5097888;28;20441;-83
2023/08/19 03:04:14;;;;;;;25.87;24.10;;;;;;;;;;5098657;28;20544;-81
2023/08/19 03:06:42;;;;;;;25.87;24.07;;;;;;;;;;5098127;28;20425;-83
2023/08/19 03:09:10;;;;;;;25.20;23.50;;;;;;;;;;5097415;28;20456;-81
2023/08/19 03:11:37;;;;;;;25.30;23.50;;;;;;;;;;5096759;27;21027;-83
2023/08/19 03:14:04;;;;;;;25.73;23.87;;;;;;;;;;5097552;28;20459;-82
2023/08/19 03:16:32;;;;;;;26.23;24.63;;;;;;;;;;5097312;28;20444;-81
2023/08/19 03:18:59;;;;;;;25.23;23.53;;;;;;;;;;5097438;28;20453;-82
2023/08/19 03:21:26;;;;;;;27.13;25.33;;;;;;;;;;5097006;28;20452;-81
2023/08/19 03:23:53;;;;;;;24.60;23.10;;;;;;;;;;5097346;28;20461;-83
2023/08/19 03:26:21;;;;;;;25.27;23.40;;;;;;;;;;5097714;28;20457;-83
2023/08/19 03:28:48;;;;;;;24.60;23.10;;;;;;;;;;5097492;28;20449;-81
2023/08/19 03:31:16;;;;;;;24.83;23.23;;;;;;;;;;5096526;27;20468;-81
2023/08/19 03:33:43;;;;;;;25.40;23.50;;;;;;;;;;5097101;28;20575;-82
2023/08/19 03:36:10;;;;;;;23.83;22.43;;;;;;;;;;5097477;28;20452;-83
2023/08/19 03:38:37;;;;;;;24.63;23.03;;;;;;;;;;5096772;28;20448;-81
2023/08/19 03:41:04;;;;;;;24.37;22.97;;;;;;;;;;5096814;28;20448;-83
2023/08/19 03:43:33;;;;;;;25.90;24.20;;;;;;;;;;5096725;28;20435;-83
2023/08/19 03:46:00;;;;;;;24.87;23.30;;;;;;;;;;5096997;28;20498;-82
2023/08/19 03:48:27;;;;;;;24.20;22.80;;;;;;;;;;5097398;28;20441;-82
2023/08/19 03:50:54;;;;;;;24.77;23.13;;;;;;;;;;5096361;28;20529;-81
2023/08/19 03:53:21;;;;;;;24.57;23.07;;;;;;;;;;5096840;28;20457;-82
2023/08/19 03:55:50;;;;;;;25.17;23.50;;;;;;;;;;5096347;27;20464;-82
2023/08/19 03:58:17;;;;;;;23.87;22.47;;;;;;;;;;5096964;28;20444;-82
2023/08/19 04:00:45;;;;;;;24.77;23.00;;;;;;;;;;5096626;28;20468;-81
2023/08/19 04:03:12;;;;;;;24.60;23.00;;;;;;;;;;5096889;28;20465;-83
2023/08/19 04:05:39;;;;;;;24.23;22.77;;;;;;;;;;5096624;28;20453;-82
2023/08/19 04:08:07;;;;;;;24.00;22.60;;;;;;;;;;5095955;27;20465;-81
2023/08/19 04:10:34;;;;;;;23.77;22.47;;;;;;;;;;5095542;28;20444;-81
2023/08/19 04:13:01;;;;;;;24.10;22.00;;;;;;;;;;5096977;28;20461;-82
2023/08/19 04:15:31;;;;;;;23.73;22.30;;;;;;;;;;5096805;28;20485;-81
2023/08/19 04:18:00;;;;;;;22.43;21.13;;;;;;;;;;5095802;27;20461;-81
2023/08/19 04:20:27;;;;;;;22.60;21.10;;;;;;;;;;5095780;28;20540;-81
2023/08/19 04:22:54;;;;;;;22.70;21.27;;;;;;;;;;5095879;28;20617;-82
2023/08/19 04:25:21;;;;;;;22.67;21.27;;;;;;;;;;5096377;28;20441;-81
2023/08/19 04:27:48;;;;;;;23.30;21.93;;;;;;;;;;5096779;28;20445;-87
2023/08/19 04:30:15;;;;;;;23.47;21.97;;;;;;;;;;5094076;28;20452;-88
2023/08/19 04:32:43;;;;;;;23.37;21.60;;;;;;;;;;5094699;28;20465;-87
2023/08/19 04:35:13;;;;;;;23.30;21.87;;;;;;;;;;5094335;28;20489;-87
2023/08/19 04:37:40;;;;;;;22.80;21.40;;;;;;;;;;5094409;28;21019;-87
2023/08/19 04:40:09;;;;;;;22.83;21.53;;;;;;;;;;5093049;27;20465;-87
2023/08/19 04:42:36;;;;;;;24.03;22.40;;;;;;;;;;5094018;28;20479;-87
2023/08/19 04:45:05;;;;;;;24.07;22.20;;;;;;;;;;5094852;28;20428;-88
2023/08/19 04:47:33;;;;;;;24.40;22.80;;;;;;;;;;5094704;28;20422;-87
2023/08/19 04:50:00;;;;;;;23.00;21.60;;;;;;;;;;5094235;28;20792;-87
2023/08/19 04:52:28;;;;;;;23.70;22.30;;;;;;;;;;5095117;27;20481;-83
2023/08/19 04:54:55;;;;;;;22.43;21.13;;;;;;;;;;5098033;28;20474;-86
2023/08/19 04:57:22;;;;;;;23.40;22.00;;;;;;;;;;5100021;28;20438;-86
2023/08/19 04:59:49;;;;;;;23.47;22.17;;;;;;;;;;5099975;28;20449;-86
2023/08/19 05:02:16;;;;;;;23.10;21.50;;;;;;;;;;5099914;27;20455;-85
2023/08/19 05:04:44;;;;;;;23.80;22.10;;;;;;;;;;5098654;28;20437;-87
2023/08/19 05:07:11;;;;;;;22.90;21.50;;;;;;;;;;5097517;28;20448;-87
2023/08/19 05:09:39;;;;;;;23.17;21.77;;;;;;;;;;5097195;28;20430;-87
2023/08/19 05:12:06;;;;;;;22.93;21.50;;;;;;;;;;5096590;28;20456;-87
2023/08/19 05:14:34;;;;;;;22.53;21.23;;;;;;;;;;5097373;28;20455;-86
2023/08/19 05:17:01;;;;;;;22.07;20.57;;;;;;;;;;5097246;28;20505;-86
2023/08/19 05:19:28;;;;;;;21.70;20.20;;;;;;;;;;5098038;28;20781;-87
2023/08/19 05:21:55;;;;;;;21.23;20.03;;;;;;;;;;5100733;28;20469;-86
2023/08/19 05:24:22;;;;;;;23.23;21.50;;;;;;;;;;5101912;28;20524;-86
2023/08/19 05:26:50;;;;;;;22.10;20.80;;;;;;;;;;5102660;28;20452;-86
2023/08/19 05:29:18;;;;;;;22.37;20.77;;;;;;;;;;5101214;28;20819;-87
2023/08/19 05:31:45;;;;;;;22.53;21.10;;;;;;;;;;5099069;28;20445;-87
2023/08/19 05:34:12;;;;;;;21.20;19.80;;;;;;;;;;5099271;28;20559;-87
2023/08/19 05:36:39;;;;;;;22.03;20.73;;;;;;;;;;5099594;28;20449;-87
2023/08/19 05:39:06;;;;;;;20.50;19.30;;;;;;;;;;5098650;28;21136;-86
2023/08/19 05:41:33;;;;;;;21.60;20.23;;;;;;;;;;5098419;28;21027;-86
2023/08/19 05:44:01;;;;;;;21.60;20.30;;;;;;;;;;5099290;28;20929;-87
2023/08/19 05:46:28;;;;;;;21.73;20.23;;;;;;;;;;5099155;28;20434;-87
2023/08/19 05:48:56;;;;;;;22.20;20.80;;;;;;;;;;5099315;28;20908;-87
2023/08/19 05:51:23;;;;;;;21.77;20.43;;;;;;;;;;5098172;28;20449;-87
2023/08/19 05:53:50;;;;;;;22.83;21.40;;;;;;;;;;5099069;28;20469;-87
2023/08/19 05:56:17;;;;;;;22.40;21.10;;;;;;;;;;5098902;28;20885;-87
2023/08/19 05:58:46;;;;;;;22.20;20.70;;;;;;;;;;5098920;28;20475;-86
2023/08/19 06:01:14;;;;;;;21.63;20.33;;;;;;;;;;5097572;28;20460;-86
2023/08/19 06:03:41;;;;;;;22.13;20.63;;;;;;;;;;5098259;28;20561;-86
2023/08/19 06:06:09;;;;;;;21.50;20.10;;;;;;;;;;5098247;28;20441;-86
2023/08/19 06:08:36;;;;;;;20.27;19.17;;;;;;;;;;5083693;28;20458;-86
2023/08/19 06:11:05;;;;;;;21.47;20.27;;;;;;;;;;5078112;28;20448;-87
2023/08/19 06:13:32;;;;;;;21.50;20.30;;;;;;;;;;5079006;28;20497;-87
2023/08/19 06:15:59;;;;;;;20.80;19.70;;;;;;;;;;5077453;28;20992;-86
2023/08/19 06:18:28;;;;;;;21.03;19.80;;;;;;;;;;5077127;28;20499;-88
2023/08/19 06:20:56;;;;;;;21.30;19.93;;;;;;;;;;5076451;28;20458;-87
2023/08/19 06:23:23;;;;;;;20.13;19.03;;;;;;;;;;5076936;28;20988;-87
2023/08/19 06:25:51;;;;;;;22.17;20.97;;;;;;;;;;5077030;28;20438;-87
2023/08/19 06:28:18;;;;;;;20.87;19.67;;;;;;;;;;5077097;28;20438;-88
2023/08/19 06:30:45;;;;;;;21.27;19.93;;;;;;;;;;5076407;28;20449;-87
2023/08/19 06:33:13;;;;;;;21.27;19.97;;;;;;;;;;5076003;28;20464;-87
2023/08/19 06:35:42;;;;;;;20.50;19.30;;;;;;;;;;5090794;28;20481;-83
2023/08/19 06:38:15;;;;;;;21.20;19.90;;;;;;;;;;5078522;28;21300;-87
2023/08/19 06:40:44;;;;;;;21.83;19.80;;;;;;;;;;5076904;28;20422;-86
2023/08/19 06:43:12;;;;;;;21.10;19.70;;;;;;;;;;5095674;28;20489;-87
2023/08/19 06:45:39;;;;;;;21.73;20.43;;;;;;;;;;5098563;28;20440;-87
2023/08/19 06:48:07;;;;;;;21.20;20.00;;;;;;;;;;5099428;28;20460;-85
2023/08/19 06:50:34;;;;;;;22.60;21.20;;;;;;;;;;5096908;28;20452;-86
2023/08/19 06:53:05;;;;;;;21.80;20.60;;;;;;;;;;5079383;28;20466;-87
2023/08/19 06:55:33;;;;;;;22.33;21.07;;;;;;;;;;5078800;28;20564;-86
2023/08/19 06:58:03;;;;;;;21.23;19.63;;;;;;;;;;5079581;28;20452;-87
2023/08/19 07:00:31;;;;;;;21.20;20.10;;;;;;;;;;5082186;28;20563;-86
2023/08/19 07:02:58;;;;;;;22.77;21.27;;;;;;;;;;5099989;28;20457;-82
2023/08/19 07:05:27;;;;;;;21.40;20.00;;;;;;;;;;5101773;28;20475;-80
2023/08/19 07:07:54;;;;;;;21.10;20.00;;;;;;;;;;5116485;28;20986;-80
2023/08/19 07:10:23;;;;;;;22.73;21.53;;;;;;;;;;5116653;28;20863;-79
2023/08/19 07:12:50;;;;;;;22.70;21.50;;;;;;;;;;5115314;28;20463;-79
2023/08/19 07:15:18;;;;;;;23.47;21.50;;;;;;;;;;5098839;28;20484;-78
2023/08/19 07:17:46;;;;;;;23.10;21.50;;;;;;;;;;5094549;28;20420;-79
2023/08/19 07:20:15;;;;;;;21.67;20.57;;;;;;;;;;5094958;28;20512;-79
2023/08/19 07:22:44;;;;;;;22.77;21.23;;;;;;;;;;5095527;28;20468;-78
2023/08/19 07:25:12;;;;;;;23.13;21.70;;;;;;;;;;5095935;28;20538;-80
2023/08/19 07:27:40;;;;;;;23.10;21.80;;;;;;;;;;5094816;28;20498;-78
2023/08/19 07:30:08;;;;;;;22.47;21.27;;;;;;;;;;5094416;28;20454;-78
2023/08/19 07:32:36;;;;;;;22.43;21.10;;;;;;;;;;5093488;28;20576;-78
2023/08/19 07:35:04;;;;;;;22.83;21.63;;;;;;;;;;5093999;28;21050;-79
2023/08/19 07:37:31;;;;;;;22.80;21.60;;;;;;;;;;5095222;28;20509;-79
2023/08/19 07:39:58;;;;;;;23.30;21.83;;;;;;;;;;5095915;28;20444;-79
2023/08/19 07:42:27;;;;;;;23.03;21.27;;;;;;;;;;5078112;28;20481;-80
2023/08/19 07:44:55;;;;;;;23.73;22.53;;;;;;;;;;5074733;28;20481;-85
2023/08/19 07:47:22;;;;;;;21.97;20.67;;;;;;;;;;5085573;28;20810;-86
2023/08/19 07:49:50;;;;;;;22.37;21.13;;;;;;;;;;5096634;28;20437;-87
2023/08/19 07:52:17;;;;;;;23.23;21.93;;;;;;;;;;5096740;28;20867;-85
2023/08/19 07:54:44;;;;;;;22.17;20.77;;;;;;;;;;5096957;28;20934;-87
2023/08/19 07:57:12;;;;;;;22.67;21.23;;;;;;;;;;5096981;28;20490;-87
2023/08/19 07:59:39;;;;;;;23.20;21.90;;;;;;;;;;5097823;28;20953;-87
2023/08/19 08:02:08;;;;;;;22.67;21.27;;;;;;;;;;5097530;28;20468;-86
2023/08/19 08:04:36;;;;;;;23.60;22.10;;;;;;;;;;5098785;28;20455;-80
2023/08/19 08:07:03;;;;;;;23.50;22.20;;;;;;;;;;5091606;28;20436;-80
2023/08/19 08:09:30;;;;;;;23.90;22.30;;;;;;;;;;5091814;28;20444;-80
2023/08/19 08:11:57;;;;;;;24.83;23.23;;;;;;;;;;5090755;28;20461;-79
2023/08/19 08:14:24;;;;;;;24.50;23.00;;;;;;;;;;5092224;27;20464;-77
2023/08/19 08:16:56;;;;;;;23.67;22.37;;;;;;;;;;5112676;28;20498;-78
2023/08/19 08:19:26;;;;;;;23.20;21.80;;;;;;;;;;5114091;28;20531;-80
2023/08/19 08:21:53;;;;;;;24.60;23.20;;;;;;;;;;5113857;28;20471;-80
2023/08/19 08:24:21;;;;;;;24.53;23.20;;;;;;;;;;5114831;28;20448;-79
2023/08/19 08:26:48;;;;;;;24.97;23.50;;;;;;;;;;5118181;28;20440;-81
2023/08/19 08:29:16;;;;;;;25.27;23.87;;;;;;;;;;5113919;28;20512;-78
2023/08/19 08:31:49;;;;;;;25.90;24.50;;;;;;;;;;5114926;28;20477;-88
2023/08/19 08:34:17;;;;;;;26.43;24.93;;;;;;;;;;5121275;28;20505;-87
2023/08/19 08:36:47;;;;;;;24.90;23.50;;;;;;;;;;5119556;28;20496;-87
2023/08/19 08:39:14;;;;;;;24.53;23.13;;;;;;;;;;5106792;28;20461;-87
2023/08/19 08:41:41;;;;;;;25.23;23.53;;;;;;;;;;5080200;28;20433;-87
2023/08/19 08:44:08;;;;;;;23.67;22.47;;;;;;;;;;5079662;28;20853;-87
2023/08/19 08:46:36;;;;;;;24.50;23.10;;;;;;;;;;5080872;28;20489;-86
2023/08/19 08:49:03;;;;;;;24.60;23.20;;;;;;;;;;5098766;28;20520;-87
2023/08/19 08:51:30;;;;;;;23.50;22.20;;;;;;;;;;5110549;28;20448;-87
2023/08/19 08:54:00;;;;;;;23.70;22.30;;;;;;;;;;5110570;28;20456;-85
2023/08/19 08:56:27;;;;;;;23.77;22.30;;;;;;;;;;5114218;28;20472;-87
2023/08/19 08:58:54;;;;;;;24.47;22.57;;;;;;;;;;5103620;28;20444;-87
2023/08/19 09:01:23;;;;;;;23.20;21.80;;;;;;;;;;5099654;28;20461;-87
2023/08/19 09:03:52;;;;;;;23.70;22.27;;;;;;;;;;5103718;28;20568;-87
2023/08/19 09:06:19;;;;;;;23.60;22.30;;;;;;;;;;5104582;28;20916;-87
2023/08/19 09:08:48;;;;;;;23.43;22.03;;;;;;;;;;5104429;28;20449;-87
2023/08/19 09:11:20;;;;;;;24.73;23.27;;;;;;;;;;5088635;28;20480;-88
2023/08/19 09:13:50;;;;;;;23.70;22.30;;;;;;;;;;5103823;28;20480;-87
2023/08/19 09:16:17;;;;;;;22.67;21.27;;;;;;;;;;5104270;28;20479;-87
2023/08/19 09:18:44;;;;;;;23.40;22.00;;;;;;;;;;5104268;28;20440;-87
2023/08/19 09:21:11;;;;;;;24.30;22.70;;;;;;;;;;5106184;28;20452;-85
2023/08/19 09:23:40;;;;;;;24.73;23.30;;;;;;;;;;5107072;28;20465;-87
2023/08/19 09:26:10;;;;;;;23.10;21.70;;;;;;;;;;5106376;28;20453;-86
2023/08/19 09:28:39;;;;;;;23.63;22.33;;;;;;;;;;5106822;28;20455;-87
2023/08/19 09:31:18;;;;;;;24.63;22.87;;;;;;;;;;5105561;28;20778;-85
2023/08/19 09:33:47;;;;;;;24.33;22.83;;;;;;;;;;5106304;28;20476;-87
2023/08/19 09:36:14;;;;;;;23.90;22.27;;;;;;;;;;5106698;28;20586;-87
2023/08/19 09:38:42;;;;;;;24.97;23.43;;;;;;;;;;5106870;28;20433;-87
2023/08/19 09:41:10;;;;;;;23.70;22.30;;;;;;;;;;5105899;28;20531;-87
2023/08/19 09:43:39;;;;;;;25.20;23.53;;;;;;;;;;5105139;28;20473;-86
2023/08/19 09:46:07;;;;;;;25.50;24.00;;;;;;;;;;5105646;28;20437;-85
2023/08/19 09:48:35;;;;;;;24.70;23.30;;;;;;;;;;5104453;28;21016;-87
2023/08/19 09:51:02;;;;;;;24.17;22.70;;;;;;;;;;5104156;28;20498;-85
2023/08/19 09:53:30;;;;;;;25.43;23.70;;;;;;;;;;5105161;28;20525;-86
2023/08/19 09:55:57;;;;;;;24.40;22.90;;;;;;;;;;5105074;28;20477;-85
2023/08/19 09:58:25;;;;;;;25.37;23.77;;;;;;;;;;5105483;28;20842;-85
2023/08/19 10:00:53;;;;;;;24.20;22.60;;;;;;;;;;5104742;28;20582;-85
2023/08/19 10:03:20;;;;;;;24.20;22.70;;;;;;;;;;5104638;28;20488;-87
2023/08/19 10:05:50;;;;;;;24.43;23.07;;;;;;;;;;5105052;28;20455;-85
2023/08/19 10:08:19;;;;;;;23.37;22.07;;;;;;;;;;5104569;28;20941;-85
2023/08/19 10:10:47;;;;;;;24.13;22.47;;;;;;;;;;5104786;28;20459;-87
2023/08/19 10:13:14;;;;;;;24.60;23.03;;;;;;;;;;5105924;28;20475;-87
2023/08/19 10:15:43;;;;;;;24.37;22.77;;;;;;;;;;5104651;28;20469;-85
2023/08/19 10:18:13;;;;;;;24.27;22.73;;;;;;;;;;5105023;28;20455;-86
2023/08/19 10:20:41;;;;;;;24.30;22.80;;;;;;;;;;5104363;28;20918;-87
2023/08/19 10:23:10;;;;;;;25.17;23.30;;;;;;;;;;5105425;28;20457;-85
2023/08/19 10:25:37;;;;;;;24.00;22.50;;;;;;;;;;5105410;28;20463;-87
2023/08/19 10:28:08;;;;;;;23.70;22.37;;;;;;;;;;5105361;28;20457;-85
2023/08/19 10:30:35;;;;;;;24.67;23.17;;;;;;;;;;5105106;28;20451;-86
2023/08/19 10:33:05;;;;;;;23.10;21.60;;;;;;;;;;5101962;28;20906;-85
2023/08/19 10:35:47;;;;;;;22.77;21.43;;;;;;;;;;5100904;28;20490;-86
2023/08/19 10:38:17;;;;;;;24.00;22.50;;;;;;;;;;5079919;28;20963;-85
2023/08/19 10:40:44;;;;;;;24.67;23.23;;;;;;;;;;5079103;28;20434;-85
2023/08/19 10:43:11;;;;;;;23.83;22.20;;;;;;;;;;5079632;28;20469;-87
2023/08/19 10:45:47;;;;;;;23.93;22.50;;;;;;;;;;5094790;28;20456;-87
2023/08/19 10:48:14;;;;;;;23.10;21.70;;;;;;;;;;5098957;28;20455;-87
2023/08/19 10:50:42;;;;;;;23.17;21.67;;;;;;;;;;5098887;28;20444;-87
2023/08/19 10:53:09;;;;;;;24.00;22.50;;;;;;;;;;5099165;28;20453;-85
2023/08/19 10:55:51;;;;;;;22.13;20.90;;;;;;;;;;5100026;28;20444;-86
2023/08/19 10:58:19;;;;;;;22.93;21.27;;;;;;;;;;5099446;28;20428;-86
2023/08/19 11:00:46;;;;;;;23.90;22.30;;;;;;;;;;5098250;28;20449;-85
2023/08/19 11:03:14;;;;;;;22.63;21.00;;;;;;;;;;5098748;28;20484;-86
2023/08/19 11:05:48;;;;;;;23.00;21.70;;;;;;;;;;5095770;28;20481;-87
2023/08/19 11:08:15;;;;;;;22.83;21.40;;;;;;;;;;5097484;28;20448;-83
2023/08/19 11:10:45;;;;;;;24.03;22.43;;;;;;;;;;5097942;28;20437;-87
2023/08/19 11:13:12;;;;;;;24.20;22.70;;;;;;;;;;5097430;28;20468;-87
2023/08/19 11:15:42;;;;;;;23.33;22.03;;;;;;;;;;5097549;28;20457;-87
2023/08/19 11:18:09;;;;;;;23.83;22.10;;;;;;;;;;5097071;28;20476;-86
2023/08/19 11:20:36;;;;;;;24.00;22.40;;;;;;;;;;5096961;28;20452;-87
2023/08/19 11:23:04;;;;;;;24.00;22.40;;;;;;;;;;5096882;28;20475;-86
2023/08/19 11:25:38;;;;;;;23.23;21.73;;;;;;;;;;5097066;28;20441;-86
2023/08/19 11:28:05;;;;;;;23.17;21.67;;;;;;;;;;5096421;28;20468;-87
2023/08/19 11:30:33;;;;;;;23.27;21.63;;;;;;;;;;5096693;28;20843;-87
2023/08/19 11:33:02;;;;;;;22.77;21.27;;;;;;;;;;5096443;28;21041;-87
2023/08/19 11:35:28;;;;;;;24.70;23.00;;;;;;;;;;5096094;28;20441;-87
2023/08/19 11:37:55;;;;;;;22.63;21.33;;;;;;;;;;5095825;28;20484;-86
2023/08/19 11:40:22;;;;;;;23.90;22.50;;;;;;;;;;5095283;28;20448;-86
2023/08/19 11:42:49;;;;;;;23.30;22.00;;;;;;;;;;5095866;28;20476;-87
2023/08/19 11:45:17;;;;;;;23.67;22.07;;;;;;;;;;5096071;28;20432;-81
2023/08/19 11:47:44;;;;;;;23.87;22.27;;;;;;;;;;5093952;28;20445;-86
2023/08/19 11:50:12;;;;;;;24.43;22.77;;;;;;;;;;5075830;28;20449;-81
2023/08/19 11:52:39;;;;;;;23.50;22.10;;;;;;;;;;5086710;28;20992;-80
2023/08/19 11:55:07;;;;;;;24.33;22.43;;;;;;;;;;5093934;28;20892;-80
2023/08/19 11:57:34;;;;;;;24.93;23.10;;;;;;;;;;5092019;28;20512;-78
2023/08/19 12:00:04;;;;;;;23.83;22.20;;;;;;;;;;5091816;28;20453;-78
2023/08/19 12:02:31;;;;;;;23.80;22.40;;;;;;;;;;5092866;28;20816;-79
2023/08/19 12:04:58;;;;;;;24.70;23.13;;;;;;;;;;5093283;28;20448;-79
2023/08/19 12:07:30;;;;;;;24.50;22.87;;;;;;;;;;5092721;28;20452;-78
2023/08/19 12:09:58;;;;;;;24.27;22.73;;;;;;;;;;5091455;28;20445;-78
2023/08/19 12:12:25;;;;;;;23.77;22.13;;;;;;;;;;5091673;28;20472;-79
2023/08/19 12:14:53;;;;;;;23.67;22.27;;;;;;;;;;5092494;28;20448;-79
2023/08/19 12:17:20;;;;;;;24.77;23.13;;;;;;;;;;5094331;28;20488;-88
2023/08/19 12:19:47;;;;;;;24.70;23.40;;;;;;;;;;5083414;28;20480;-83
2023/08/19 12:22:14;;;;;;;24.50;23.10;;;;;;;;;;5074187;28;20481;-87
2023/08/19 12:24:42;;;;;;;23.73;22.20;;;;;;;;;;5074249;28;20446;-88
2023/08/19 12:27:09;;;;;;;23.70;22.20;;;;;;;;;;5075670;28;20438;-87
2023/08/19 12:29:37;;;;;;;25.10;23.50;;;;;;;;;;5086773;28;20805;-87
2023/08/19 12:32:04;;;;;;;24.87;23.57;;;;;;;;;;5100347;28;20519;-86
2023/08/19 12:34:32;;;;;;;24.03;22.30;;;;;;;;;;5104107;28;20478;-87
2023/08/19 12:36:59;;;;;;;24.40;22.93;;;;;;;;;;5098838;28;20542;-88
2023/08/19 12:39:26;;;;;;;24.90;23.40;;;;;;;;;;5098761;28;20448;-88
2023/08/19 12:41:54;;;;;;;22.93;21.63;;;;;;;;;;5087138;28;20446;-87
2023/08/19 12:44:21;;;;;;;23.40;22.00;;;;;;;;;;5078117;28;20442;-88
2023/08/19 12:46:50;;;;;;;25.03;23.43;;;;;;;;;;5097626;28;20798;-88
2023/08/19 12:49:17;;;;;;;24.57;22.87;;;;;;;;;;5098493;28;20457;-88
2023/08/19 12:51:44;;;;;;;23.97;22.57;;;;;;;;;;5097969;28;20441;-88
2023/08/19 12:54:16;;;;;;;25.50;23.73;;;;;;;;;;5097580;28;20960;-88
2023/08/19 12:56:43;;;;;;;25.00;23.50;;;;;;;;;;5098195;28;20468;-88
2023/08/19 12:59:12;;;;;;;24.80;23.40;;;;;;;;;;5098763;28;20459;-87
2023/08/19 13:01:39;;;;;;;24.90;23.17;;;;;;;;;;5097947;28;20461;-87
2023/08/19 13:04:07;;;;;;;24.67;23.07;;;;;;;;;;5098539;28;20448;-87
2023/08/19 13:06:34;;;;;;;24.40;23.00;;;;;;;;;;5098835;28;20444;-87
2023/08/19 13:09:01;;;;;;;26.33;24.50;;;;;;;;;;5098831;28;20990;-87
2023/08/19 13:11:28;;;;;;;25.70;24.00;;;;;;;;;;5098646;28;20449;-86
2023/08/19 13:14:02;;;;;;;25.47;23.97;;;;;;;;;;5098890;28;20475;-87
2023/08/19 13:16:31;;;;;;;25.53;23.83;;;;;;;;;;5098422;28;20434;-87
2023/08/19 13:19:00;;;;;;;25.37;23.57;;;;;;;;;;5098673;28;20518;-87
2023/08/19 13:21:27;;;;;;;26.30;24.40;;;;;;;;;;5098338;28;20449;-87
2023/08/19 13:23:54;;;;;;;25.17;23.67;;;;;;;;;;5098235;28;20475;-87
2023/08/19 13:26:21;;;;;;;27.60;25.50;;;;;;;;;;5098501;28;20480;-88
2023/08/19 13:28:48;;;;;;;27.27;25.47;;;;;;;;;;5098549;28;20441;-87
2023/08/19 13:31:17;;;;;;;27.93;25.77;;;;;;;;;;5097736;28;20411;-87
2023/08/19 13:33:46;;;;;;;28.40;26.30;;;;;;;;;;5097689;28;20465;-87
2023/08/19 13:36:13;;;;;;;28.70;26.37;;;;;;;;;;5098349;28;20420;-88
2023/08/19 13:38:40;;;;;;;26.87;25.00;;;;;;;;;;5097993;28;20487;-88
2023/08/19 13:41:08;;;;;;;27.13;25.53;;;;;;;;;;5095184;28;20443;-88
2023/08/19 13:43:37;;;;;;;27.07;25.37;;;;;;;;;;5097248;28;20875;-88
2023/08/19 13:46:05;;;;;;;26.40;24.80;;;;;;;;;;5096275;28;20445;-87
2023/08/19 13:48:32;;;;;;;26.87;25.17;;;;;;;;;;5097412;28;20504;-88
2023/08/19 13:51:00;;;;;;;27.17;25.47;;;;;;;;;;5096160;28;20963;-88
2023/08/19 13:53:28;;;;;;;27.33;25.47;;;;;;;;;;5097257;28;20551;-88
2023/08/19 13:55:55;;;;;;;26.97;25.27;;;;;;;;;;5097387;28;20476;-88
2023/08/19 13:58:22;;;;;;;25.97;24.50;;;;;;;;;;5097643;28;20477;-88
2023/08/19 14:00:49;;;;;;;26.60;25.00;;;;;;;;;;5098029;28;20809;-88
2023/08/19 14:03:18;;;;;;;27.43;25.50;;;;;;;;;;5098241;28;20483;-87
2023/08/19 14:05:45;;;;;;;29.10;26.60;;;;;;;;;;5097119;28;20457;-87
2023/08/19 14:08:13;;;;;;;27.73;25.70;;;;;;;;;;5097798;28;20445;-87
2023/08/19 14:10:40;;;;;;;26.50;24.80;;;;;;;;;;5097405;28;20433;-87
2023/08/19 14:13:07;;;;;;;26.60;25.00;;;;;;;;;;5097756;28;20475;-87
2023/08/19 14:15:35;;;;;;;27.23;25.27;;;;;;;;;;5096945;28;20444;-87
2023/08/19 14:18:02;;;;;;;27.73;25.43;;;;;;;;;;5097208;28;20827;-87
2023/08/19 14:20:29;;;;;;;26.93;25.33;;;;;;;;;;5096394;28;20955;-88